Time;durP1;ratioP1;P1;durP2;ratioP2;P2;SDS_P1;SDS_P2;PMS_P1;PMS_P2;Temp;Humidity;BMP_temperature;BMP_pressure;BME280_temperature;BME280_humidity;BME280_pressure;Samples;Min_cycle;Max_cycle;Signal;HPM_P1;HPM_P2
2020/12/23 00:00:05;;;;;;;4.45;1.52;;;7.40;29.90;;;;;;4962603;28;20380;-84
2020/12/23 00:02:37;;;;;;;1.40;1.00;;;7.40;50.50;;;;;;4962681;28;20184;-83
2020/12/23 00:05:06;;;;;;;1.95;1.77;;;7.40;2.90;;;;;;4962186;29;20224;-85
2020/12/23 00:07:34;;;;;;;2.28;0.80;;;7.50;99.90;;;;;;4961071;29;20188;-84
2020/12/23 00:10:01;;;;;;;4.38;1.02;;;7.40;1.00;;;;;;4959904;29;20227;-83
2020/12/23 00:12:28;;;;;;;4.40;1.60;;;7.50;1.00;;;;;;4960723;29;20608;-85
2020/12/23 00:14:57;;;;;;;1.10;0.75;;;7.40;1.00;;;;;;4959504;29;20562;-84
2020/12/23 00:17:24;;;;;;;2.45;1.30;;;7.50;1.00;;;;;;4959194;29;20251;-85
2020/12/23 00:19:52;;;;;;;2.53;1.60;;;7.50;1.00;;;;;;4960653;28;20220;-83
2020/12/23 00:22:19;;;;;;;1.90;1.25;;;7.50;1.00;;;;;;4959862;29;20215;-85
2020/12/23 00:24:46;;;;;;;3.53;1.35;;;7.50;99.90;;;;;;4960910;29;20188;-84
2020/12/23 00:27:14;;;;;;;3.25;0.98;;;7.50;1.00;;;;;;4961586;28;20562;-85
2020/12/23 00:29:41;;;;;;;1.45;0.90;;;7.60;1.00;;;;;;4959857;29;20219;-83
2020/12/23 00:32:09;;;;;;;1.80;1.08;;;7.50;1.00;;;;;;4960921;28;20200;-83
2020/12/23 00:34:37;;;;;;;2.70;0.90;;;7.60;1.00;;;;;;4960208;29;20251;-83
2020/12/23 00:37:05;;;;;;;2.67;0.60;;;7.50;99.90;;;;;;4959526;29;20341;-85
2020/12/23 00:39:32;;;;;;;4.03;1.33;;;7.50;1.00;;;;;;4959272;29;20314;-84
2020/12/23 00:42:00;;;;;;;4.75;1.35;;;7.50;50.40;;;;;;4961150;28;20188;-82
2020/12/23 00:44:27;;;;;;;2.40;1.00;;;7.40;99.90;;;;;;4959822;29;20250;-84
2020/12/23 00:46:55;;;;;;;2.75;0.73;;;7.40;99.90;;;;;;4959879;29;20235;-83
2020/12/23 00:49:23;;;;;;;9.63;3.97;;;7.50;1.00;;;;;;4958949;29;20216;-84
2020/12/23 00:51:51;;;;;;;3.35;1.70;;;7.40;1.00;;;;;;4958967;29;20200;-84
2020/12/23 00:54:19;;;;;;;0.90;0.70;;;7.50;1.00;;;;;;4958803;29;20195;-83
2020/12/23 00:56:47;;;;;;;2.95;1.10;;;7.50;1.00;;;;;;4959606;29;20192;-85
2020/12/23 00:59:14;;;;;;;2.35;1.67;;;7.60;99.90;;;;;;4960218;28;20212;-84
2020/12/23 01:01:42;;;;;;;2.75;1.17;;;7.70;99.90;;;;;;4962219;28;20633;-85
2020/12/23 01:04:09;;;;;;;7.22;1.75;;;7.60;1.00;;;;;;4959417;29;20223;-84
2020/12/23 01:06:38;;;;;;;2.85;1.15;;;7.60;99.90;;;;;;4960003;29;20270;-83
2020/12/23 01:09:05;;;;;;;1.70;0.65;;;7.60;95.70;;;;;;5010091;23;20699;-67
2020/12/23 01:11:32;;;;;;;4.65;1.63;;;7.60;43.10;;;;;;4973968;28;20671;-66
2020/12/23 01:14:00;;;;;;;1.45;1.20;;;7.70;27.40;;;;;;4973922;28;20627;-68
2020/12/23 01:16:27;;;;;;;6.03;1.38;;;7.70;1.00;;;;;;4973912;28;20259;-67
2020/12/23 01:18:54;;;;;;;1.65;1.05;;;7.80;1.00;;;;;;4973745;28;20219;-67
2020/12/23 01:21:21;;;;;;;3.40;2.08;;;7.70;44.50;;;;;;4973559;28;20199;-68
2020/12/23 01:23:49;;;;;;;1.80;0.90;;;7.60;91.80;;;;;;4974068;28;20545;-69
2020/12/23 01:26:17;;;;;;;1.52;0.98;;;7.70;1.00;;;;;;4973345;28;20629;-69
2020/12/23 01:28:45;;;;;;;9.40;1.65;;;7.70;69.30;;;;;;4973567;28;20186;-69
2020/12/23 01:31:12;;;;;;;3.05;1.35;;;7.70;99.90;;;;;;4973867;28;20207;-68
2020/12/23 01:33:40;;;;;;;1.77;1.27;;;7.70;1.00;;;;;;4973536;28;20248;-68
2020/12/23 01:36:08;;;;;;;2.05;0.90;;;7.70;1.00;;;;;;4973564;28;20183;-68
2020/12/23 01:38:36;;;;;;;1.92;0.88;;;7.70;10.00;;;;;;4973411;28;20180;-68
2020/12/23 01:41:05;;;;;;;2.17;1.23;;;7.80;99.90;;;;;;4973347;28;20187;-68
2020/12/23 01:43:33;;;;;;;4.60;2.20;;;7.80;99.90;;;;;;4973452;28;20176;-68
2020/12/23 01:46:01;;;;;;;2.65;1.33;;;7.90;1.00;;;;;;4973469;28;20180;-67
2020/12/23 01:48:30;;;;;;;1.40;1.00;;;7.80;99.90;;;;;;4974788;28;20657;-69
2020/12/23 01:50:58;;;;;;;1.48;0.77;;;7.70;99.90;;;;;;4976815;28;20199;-67
2020/12/23 01:53:26;;;;;;;4.00;1.23;;;7.60;1.00;;;;;;4976697;28;20183;-69
2020/12/23 01:55:55;;;;;;;2.42;1.33;;;7.60;1.00;;;;;;4976698;28;20243;-66
2020/12/23 01:58:23;;;;;;;1.75;1.42;;;7.60;1.00;;;;;;4976462;28;20179;-64
2020/12/23 02:00:51;;;;;;;2.28;1.00;;;7.60;1.00;;;;;;4976371;28;20549;-66
2020/12/23 02:03:21;;;;;;;9.40;1.38;;;7.60;1.00;;;;;;4976404;28;20188;-65
2020/12/23 02:05:48;;;;;;;1.00;0.82;;;7.60;99.90;;;;;;4975490;28;20215;-66
2020/12/23 02:08:15;;;;;;;6.40;1.58;;;7.60;1.00;;;;;;4977817;28;20175;-67
2020/12/23 02:10:44;;;;;;;3.92;2.38;;;7.60;1.00;;;;;;4961968;28;20208;-69
2020/12/23 02:13:11;;;;;;;7.28;1.40;;;7.60;1.00;;;;;;4980139;28;20187;-67
2020/12/23 02:15:39;;;;;;;4.03;1.35;;;7.70;1.00;;;;;;4980214;28;20211;-67
2020/12/23 02:18:07;;;;;;;2.85;0.80;;;7.70;99.90;;;;;;4980222;28;20176;-68
2020/12/23 02:20:34;;;;;;;1.05;0.85;;;7.60;1.00;;;;;;4979392;28;20172;-68
2020/12/23 02:23:02;;;;;;;1.90;0.80;;;7.60;1.00;;;;;;4979679;28;20566;-67
2020/12/23 02:25:29;;;;;;;3.97;1.30;;;7.60;1.00;;;;;;4979444;28;20223;-68
2020/12/23 02:27:56;;;;;;;2.65;1.33;;;7.60;99.90;;;;;;4979952;28;20283;-69
2020/12/23 02:30:23;;;;;;;2.17;0.80;;;7.60;1.00;;;;;;4962482;28;20223;-68
2020/12/23 02:33:30;;;;;;;3.40;0.85;;;7.70;99.90;;;;;;4979257;28;20203;-67
2020/12/23 02:35:57;;;;;;;3.35;1.40;;;7.80;96.50;;;;;;4981527;28;20191;-67
2020/12/23 02:38:25;;;;;;;6.50;1.10;;;7.80;99.90;;;;;;4981738;28;20191;-68
2020/12/23 02:40:52;;;;;;;2.33;1.00;;;7.80;99.90;;;;;;4981261;28;20172;-68
2020/12/23 02:43:19;;;;;;;4.00;1.23;;;7.70;99.90;;;;;;4980770;28;20191;-68
2020/12/23 02:45:46;;;;;;;3.15;1.02;;;7.80;1.00;;;;;;4980658;28;20719;-68
2020/12/23 02:48:13;;;;;;;6.97;1.10;;;7.80;1.00;;;;;;4980915;28;20202;-67
2020/12/23 02:50:41;;;;;;;1.13;0.77;;;7.80;1.00;;;;;;4979916;28;20225;-68
2020/12/23 02:53:08;;;;;;;4.35;0.82;;;7.70;1.00;;;;;;4979667;28;20196;-68
2020/12/23 02:55:37;;;;;;;1.77;1.33;;;7.60;1.00;;;;;;4979872;28;20708;-67
2020/12/23 02:58:04;;;;;;;2.65;1.52;;;7.70;1.00;;;;;;4978240;28;20199;-66
2020/12/23 03:00:31;;;;;;;1.33;1.13;;;7.70;1.00;;;;;;4977724;28;20188;-68
2020/12/23 03:02:58;;;;;;;2.08;0.80;;;7.70;99.90;;;;;;4979046;28;20195;-67
2020/12/23 03:05:25;;;;;;;2.10;1.25;;;7.70;1.00;;;;;;4978909;28;20302;-67
2020/12/23 03:07:52;;;;;;;3.10;1.17;;;7.70;99.90;;;;;;4979476;28;20192;-66
2020/12/23 03:10:19;;;;;;;5.15;1.42;;;7.70;99.90;;;;;;4978555;28;20212;-67
2020/12/23 03:12:47;;;;;;;5.35;1.38;;;7.80;1.00;;;;;;4978589;28;20199;-68
2020/12/23 03:15:14;;;;;;;2.75;2.25;;;7.70;99.90;;;;;;4977957;28;20215;-68
2020/12/23 03:17:41;;;;;;;3.90;1.35;;;7.70;99.90;;;;;;4978845;28;20190;-68
2020/12/23 03:20:08;;;;;;;2.55;1.00;;;7.70;1.00;;;;;;4979009;28;20708;-68
2020/12/23 03:22:35;;;;;;;0.90;0.70;;;7.90;99.90;;;;;;4979365;28;20183;-68
2020/12/23 03:25:03;;;;;;;2.75;1.45;;;7.90;99.90;;;;;;4978892;28;20215;-67
2020/12/23 03:27:30;;;;;;;5.30;1.48;;;8.00;99.90;;;;;;4978924;28;20191;-67
2020/12/23 03:29:58;;;;;;;2.40;1.13;;;8.10;99.90;;;;;;4979121;28;20195;-67
2020/12/23 03:32:25;;;;;;;10.52;1.75;;;7.90;99.90;;;;;;4978996;28;20192;-68
2020/12/23 03:34:52;;;;;;;3.75;0.80;;;7.80;99.90;;;;;;4980075;28;20249;-67
2020/12/23 03:37:19;;;;;;;2.70;0.90;;;7.70;99.90;;;;;;4979449;28;20543;-67
2020/12/23 03:39:46;;;;;;;1.77;1.20;;;7.80;99.90;;;;;;4979513;28;20179;-66
2020/12/23 03:42:13;;;;;;;3.13;1.00;;;7.90;99.90;;;;;;4978467;28;20187;-67
2020/12/23 03:44:41;;;;;;;2.72;1.30;;;7.90;99.90;;;;;;4979135;28;20216;-67
2020/12/23 03:47:08;;;;;;;3.28;0.80;;;7.80;99.90;;;;;;4979820;28;20261;-68
2020/12/23 03:49:36;;;;;;;2.97;1.25;;;7.80;99.90;;;;;;4961558;28;20194;-67
2020/12/23 03:52:03;;;;;;;4.85;1.30;;;7.90;99.90;;;;;;4978738;28;20259;-67
2020/12/23 03:54:30;;;;;;;1.30;0.95;;;7.80;99.90;;;;;;4959704;28;20223;-68
2020/12/23 03:56:57;;;;;;;6.50;1.23;;;7.70;99.90;;;;;;4976680;28;20207;-67
2020/12/23 03:59:24;;;;;;;1.10;0.73;;;7.90;99.90;;;;;;4976550;28;20215;-68
2020/12/23 04:01:51;;;;;;;4.32;1.33;;;8.00;99.90;;;;;;4976613;28;20176;-68
2020/12/23 04:04:19;;;;;;;2.20;0.70;;;7.90;99.90;;;;;;4959429;28;20211;-68
2020/12/23 04:06:46;;;;;;;2.20;1.85;;;7.90;99.90;;;;;;4976937;28;20192;-68
2020/12/23 04:09:13;;;;;;;2.75;1.40;;;7.80;99.90;;;;;;4976267;28;20595;-68
2020/12/23 04:11:40;;;;;;;3.53;0.95;;;7.80;99.90;;;;;;4976527;28;20191;-66
2020/12/23 04:14:07;;;;;;;9.52;1.40;;;7.70;99.90;;;;;;4976726;28;20234;-67
2020/12/23 04:16:35;;;;;;;1.00;0.77;;;7.70;99.90;;;;;;4976095;28;20242;-68
2020/12/23 04:19:02;;;;;;;5.82;1.00;;;7.70;99.90;;;;;;4976324;28;20179;-68
2020/12/23 04:21:30;;;;;;;6.03;1.40;;;7.70;99.90;;;;;;4976968;28;20602;-68
2020/12/23 04:23:57;;;;;;;2.55;0.80;;;7.80;99.90;;;;;;4976419;28;20698;-67
2020/12/23 04:26:24;;;;;;;6.38;1.35;;;7.80;99.90;;;;;;4976182;28;20199;-67
2020/12/23 04:28:51;;;;;;;8.07;1.08;;;7.70;99.90;;;;;;4975712;28;20188;-67
2020/12/23 04:31:19;;;;;;;4.93;0.90;;;7.80;99.90;;;;;;4976177;28;20332;-68
2020/12/23 04:33:46;;;;;;;1.75;1.15;;;7.70;99.90;;;;;;4977556;28;20275;-67
2020/12/23 04:36:13;;;;;;;6.95;1.58;;;7.80;99.90;;;;;;4978361;28;20195;-68
2020/12/23 04:38:41;;;;;;;1.00;0.90;;;7.80;99.90;;;;;;4978298;28;20560;-69
2020/12/23 04:41:08;;;;;;;4.25;1.33;;;7.80;99.90;;;;;;4978385;28;20176;-67
2020/12/23 04:43:35;;;;;;;4.50;1.50;;;7.70;99.90;;;;;;4978450;28;20300;-68
2020/12/23 04:46:03;;;;;;;6.45;1.38;;;7.70;99.90;;;;;;4978278;28;20175;-68
2020/12/23 04:48:34;;;;;;;7.95;1.45;;;7.60;99.90;;;;;;4978488;28;20214;-67
2020/12/23 04:51:04;;;;;;;2.10;1.30;;;7.80;99.90;;;;;;4977958;28;20195;-67
2020/12/23 04:53:31;;;;;;;0.90;0.68;;;7.90;99.90;;;;;;4978539;28;20659;-67
2020/12/23 04:55:59;;;;;;;2.15;1.52;;;7.90;99.90;;;;;;4978588;28;20175;-67
2020/12/23 04:58:28;;;;;;;3.80;1.40;;;7.90;99.90;;;;;;4978148;28;20180;-67
2020/12/23 05:00:55;;;;;;;2.15;1.50;;;7.90;99.90;;;;;;4960637;28;20191;-68
2020/12/23 05:03:22;;;;;;;6.88;1.35;;;7.90;99.90;;;;;;4977913;28;20185;-68
2020/12/23 05:05:49;;;;;;;2.90;0.80;;;7.90;99.90;;;;;;4977038;28;20210;-69
2020/12/23 05:08:18;;;;;;;7.00;1.30;;;7.90;99.90;;;;;;4976709;28;20188;-68
2020/12/23 05:10:45;;;;;;;7.75;1.65;;;7.90;99.90;;;;;;4976424;28;20199;-67
2020/12/23 05:13:13;;;;;;;3.22;1.20;;;7.90;99.90;;;;;;4976562;28;20184;-67
2020/12/23 05:15:40;;;;;;;1.30;0.75;;;7.90;99.90;;;;;;4976885;28;20692;-67
2020/12/23 05:18:08;;;;;;;3.70;1.00;;;8.00;99.90;;;;;;4977444;28;20191;-67
2020/12/23 05:20:35;;;;;;;4.95;1.45;;;7.80;99.90;;;;;;4960226;28;20188;-68
2020/12/23 05:23:03;;;;;;;6.38;2.28;;;7.70;99.90;;;;;;4978194;28;20187;-67
2020/12/23 05:25:32;;;;;;;4.20;1.50;;;7.70;99.90;;;;;;4981027;28;20203;-69
2020/12/23 05:27:59;;;;;;;1.45;0.80;;;7.70;99.90;;;;;;4981228;28;20199;-67
2020/12/23 05:30:28;;;;;;;2.35;0.82;;;7.70;99.90;;;;;;4980868;28;20168;-69
2020/12/23 05:32:55;;;;;;;5.50;2.00;;;7.70;99.90;;;;;;4981166;28;20206;-67
2020/12/23 05:35:22;;;;;;;2.30;1.00;;;7.70;99.90;;;;;;4981025;28;20211;-67
2020/12/23 05:37:50;;;;;;;5.18;1.58;;;7.70;99.90;;;;;;4981118;28;20526;-67
2020/12/23 05:40:17;;;;;;;3.85;1.60;;;7.70;99.90;;;;;;4980261;28;20191;-67
2020/12/23 05:42:46;;;;;;;4.95;0.77;;;7.80;99.90;;;;;;4980707;28;20195;-67
2020/12/23 05:45:16;;;;;;;8.68;1.33;;;7.90;99.90;;;;;;4980371;28;20227;-67
2020/12/23 05:47:44;;;;;;;3.10;1.08;;;8.00;99.90;;;;;;4980211;28;20175;-67
2020/12/23 05:50:11;;;;;;;1.00;0.82;;;8.00;99.90;;;;;;4980194;28;20199;-68
2020/12/23 05:52:39;;;;;;;3.22;1.45;;;7.90;99.90;;;;;;4962680;28;20290;-67
2020/12/23 05:55:15;;;;;;;4.57;1.17;;;7.90;99.90;;;;;;4981028;28;20230;-67
2020/12/23 05:57:43;;;;;;;1.85;1.02;;;7.80;99.90;;;;;;4980878;28;20250;-67
2020/12/23 06:00:11;;;;;;;3.13;1.25;;;7.70;99.90;;;;;;4981044;28;20180;-67
2020/12/23 06:03:04;;;;;;;4.15;0.93;;;7.70;99.90;;;;;;4981933;28;20685;-67
2020/12/23 06:05:34;;;;;;;3.30;1.45;;;7.70;99.90;;;;;;4981386;28;20226;-66
2020/12/23 06:08:03;;;;;;;3.88;0.82;;;7.70;99.90;;;;;;4980572;28;20282;-67
2020/12/23 06:10:36;;;;;;;3.88;1.55;;;7.70;99.90;;;;;;4980039;28;20223;-66
2020/12/23 06:13:11;;;;;;;5.00;1.48;;;7.70;99.90;;;;;;4980706;28;20197;-67
2020/12/23 06:15:42;;;;;;;3.95;2.67;;;7.80;99.90;;;;;;4979682;28;20297;-68
2020/12/23 06:18:18;;;;;;;2.42;1.92;;;7.80;99.90;;;;;;4979445;28;20559;-68
2020/12/23 06:20:46;;;;;;;0.98;0.73;;;7.90;99.90;;;;;;4977806;28;20230;-68
2020/12/23 06:23:25;;;;;;;5.60;1.48;;;8.00;99.90;;;;;;4978301;28;20188;-67
2020/12/23 06:25:53;;;;;;;3.97;2.10;;;7.90;99.90;;;;;;4979817;28;20211;-68
2020/12/23 06:28:23;;;;;;;1.40;1.10;;;7.80;99.90;;;;;;4979934;28;20214;-67
2020/12/23 06:30:52;;;;;;;7.53;4.35;;;7.70;99.90;;;;;;4978102;28;20208;-67
2020/12/23 06:33:21;;;;;;;4.47;1.35;;;7.70;99.90;;;;;;4978157;28;20182;-68
2020/12/23 06:35:48;;;;;;;4.93;2.05;;;7.80;99.90;;;;;;4976633;28;20223;-67
2020/12/23 06:38:22;;;;;;;4.47;1.85;;;7.80;99.90;;;;;;4977987;28;20246;-67
2020/12/23 06:40:57;;;;;;;2.22;1.60;;;7.70;99.90;;;;;;4960406;28;20564;-69
2020/12/23 06:44:00;;;;;;;3.72;2.70;;;7.70;99.90;;;;;;4978787;28;20180;-68
2020/12/23 06:47:06;;;;;;;6.30;1.40;;;7.80;99.90;;;;;;4979984;28;20175;-67
2020/12/23 06:49:37;;;;;;;1.75;1.60;;;7.70;99.90;;;;;;4981534;28;20219;-67
2020/12/23 06:52:29;;;;;;;1.65;0.82;;;7.60;99.90;;;;;;4981115;28;20219;-69
2020/12/23 06:54:57;;;;;;;4.45;1.30;;;7.60;99.90;;;;;;4979220;28;20653;-69
2020/12/23 06:57:58;;;;;;;2.97;1.90;;;7.60;99.90;;;;;;4979061;28;20176;-69
2020/12/23 07:00:36;;;;;;;4.53;1.75;;;7.60;99.90;;;;;;4900935;29;20245;-67
2020/12/23 07:03:05;;;;;;;5.20;1.20;;;7.80;99.90;;;;;;4967354;28;20203;-69
2020/12/23 07:05:36;;;;;;;4.70;1.65;;;7.90;99.90;;;;;;4979002;28;20215;-70
2020/12/23 07:08:05;;;;;;;4.10;2.17;;;7.90;99.90;;;;;;4980501;28;20190;-68
2020/12/23 07:10:51;;;;;;;4.63;1.55;;;7.80;99.90;;;;;;4971918;28;20285;-45
2020/12/23 07:13:21;;;;;;;7.30;1.30;;;7.90;99.90;;;;;;4973777;28;20194;-49
2020/12/23 07:15:57;;;;;;;3.88;1.10;;;7.90;99.90;;;;;;4978945;28;20277;-50
2020/12/23 07:18:26;;;;;;;3.17;2.05;;;7.80;99.90;;;;;;4993414;28;20213;-45
2020/12/23 07:21:01;;;;;;;5.85;0.95;;;7.70;99.90;;;;;;4992672;28;20245;-47
2020/12/23 07:23:30;;;;;;;1.65;1.55;;;7.70;99.90;;;;;;4992969;28;20529;-50
2020/12/23 07:25:59;;;;;;;4.28;1.90;;;7.60;99.90;;;;;;4993070;28;20207;-49
2020/12/23 07:28:30;;;;;;;2.03;1.35;;;7.60;99.90;;;;;;4993103;28;20261;-44
2020/12/23 07:30:58;;;;;;;5.38;2.45;;;7.60;99.90;;;;;;4992807;28;20210;-53
2020/12/23 07:33:26;;;;;;;4.18;2.05;;;7.80;99.90;;;;;;4992719;28;20190;-47
2020/12/23 07:35:56;;;;;;;3.35;2.33;;;7.70;99.90;;;;;;4992966;28;20207;-48
2020/12/23 07:38:24;;;;;;;2.05;1.30;;;7.60;99.90;;;;;;4992422;28;20250;-44
2020/12/23 07:40:52;;;;;;;1.58;1.40;;;7.80;99.90;;;;;;4992364;28;20179;-46
2020/12/23 07:43:20;;;;;;;9.30;1.75;;;7.70;99.90;;;;;;4991992;28;20558;-50
2020/12/23 07:45:48;;;;;;;1.38;1.23;;;7.90;99.90;;;;;;4991313;28;20691;-46
2020/12/23 07:48:18;;;;;;;2.88;1.63;;;7.90;99.90;;;;;;4991944;28;20191;-48
2020/12/23 07:50:47;;;;;;;3.67;2.15;;;8.00;99.90;;;;;;4992004;28;20198;-48
2020/12/23 07:53:17;;;;;;;3.80;2.35;;;8.00;99.90;;;;;;4991483;28;20195;-47
2020/12/23 07:55:45;;;;;;;7.18;2.38;;;8.00;99.90;;;;;;4991584;28;20626;-46
2020/12/23 07:58:13;;;;;;;6.53;2.25;;;8.00;99.90;;;;;;4991253;28;20599;-44
2020/12/23 08:00:43;;;;;;;7.72;3.67;;;8.10;99.90;;;;;;4992057;28;20671;-45
2020/12/23 08:03:12;;;;;;;11.13;2.22;;;8.00;99.90;;;;;;4991759;28;20206;-49
2020/12/23 08:05:41;;;;;;;3.42;2.05;;;8.10;99.90;;;;;;4991893;28;20318;-47
2020/12/23 08:08:27;;;;;;;4.18;1.92;;;8.10;99.90;;;;;;4992258;28;20691;-48
2020/12/23 08:10:54;;;;;;;2.20;1.80;;;8.10;99.90;;;;;;4991468;28;20190;-44
2020/12/23 08:13:26;;;;;;;5.68;3.15;;;8.10;99.90;;;;;;4991714;28;20681;-46
2020/12/23 08:16:07;;;;;;;3.75;2.45;;;8.20;99.90;;;;;;4991748;28;20219;-49
2020/12/23 08:18:35;;;;;;;4.60;2.58;;;8.10;99.90;;;;;;4991960;28;20568;-48
2020/12/23 08:21:10;;;;;;;4.60;1.88;;;8.00;99.90;;;;;;4991968;28;20182;-45
2020/12/23 08:23:38;;;;;;;5.68;2.70;;;8.00;99.90;;;;;;4991087;28;20273;-48
2020/12/23 08:26:07;;;;;;;3.05;2.50;;;8.00;99.90;;;;;;4991470;28;20242;-47
2020/12/23 08:28:37;;;;;;;4.50;1.55;;;8.00;99.90;;;;;;4991541;28;20266;-45
2020/12/23 08:31:05;;;;;;;2.42;2.22;;;7.90;99.90;;;;;;4991506;28;20191;-49
2020/12/23 08:33:34;;;;;;;8.98;1.77;;;7.90;99.90;;;;;;4990819;28;20261;-48
2020/12/23 08:36:04;;;;;;;4.43;1.75;;;8.20;99.90;;;;;;4990806;28;20217;-45
2020/12/23 08:38:40;;;;;;;2.95;1.80;;;8.30;99.90;;;;;;4978289;28;20210;-46
2020/12/23 08:41:14;;;;;;;4.43;2.40;;;8.30;99.90;;;;;;4990792;28;20198;-44
2020/12/23 08:43:45;;;;;;;17.15;3.30;;;8.40;99.90;;;;;;4991513;28;20189;-47
2020/12/23 08:46:19;;;;;;;2.70;2.25;;;8.50;99.90;;;;;;4990842;28;20226;-41
2020/12/23 08:48:47;;;;;;;3.83;2.42;;;8.50;99.90;;;;;;4990938;28;20217;-47
2020/12/23 08:51:19;;;;;;;8.77;2.45;;;8.60;99.90;;;;;;4991317;28;20191;-45
2020/12/23 08:53:52;;;;;;;2.58;1.60;;;8.60;99.90;;;;;;4991586;28;20175;-49
2020/12/23 08:56:25;;;;;;;4.85;1.52;;;8.70;99.90;;;;;;4991416;28;20210;-50
2020/12/23 08:58:58;;;;;;;13.55;2.75;;;8.80;99.90;;;;;;4993439;28;20186;-42
2020/12/23 09:01:27;;;;;;;2.70;2.40;;;8.80;99.90;;;;;;4995213;28;20178;-45
2020/12/23 09:03:58;;;;;;;10.27;2.97;;;8.90;99.90;;;;;;4995584;28;20179;-47
2020/12/23 09:06:26;;;;;;;5.65;4.10;;;9.00;99.90;;;;;;4984777;28;20206;-43
2020/12/23 09:09:17;;;;;;;6.95;3.50;;;9.00;99.90;;;;;;4995358;28;20245;-47
2020/12/23 09:11:47;;;;;;;3.88;2.28;;;9.10;99.90;;;;;;4994504;28;20230;-46
2020/12/23 09:14:19;;;;;;;6.93;2.75;;;9.10;99.90;;;;;;4994511;28;20218;-46
2020/12/23 09:16:57;;;;;;;3.40;2.78;;;9.10;99.90;;;;;;4994338;28;20207;-48
2020/12/23 09:19:44;;;;;;;9.25;3.65;;;9.10;99.90;;;;;;4995177;28;20175;-45
2020/12/23 09:22:12;;;;;;;3.60;2.25;;;9.10;99.90;;;;;;4995140;28;20229;-46
2020/12/23 09:24:40;;;;;;;8.45;4.53;;;9.10;99.90;;;;;;4994824;28;20202;-50
2020/12/23 09:27:21;;;;;;;3.58;2.47;;;9.10;99.90;;;;;;4994713;28;20246;-50
2020/12/23 09:29:48;;;;;;;5.95;2.15;;;9.10;99.90;;;;;;4994909;28;20257;-48
2020/12/23 09:32:15;;;;;;;5.38;2.67;;;9.10;99.90;;;;;;4994402;28;20210;-45
2020/12/23 09:34:55;;;;;;;3.15;2.03;;;9.10;99.90;;;;;;4994196;28;20222;-54
2020/12/23 09:37:29;;;;;;;6.80;2.20;;;9.10;99.90;;;;;;4993718;28;20218;-44
2020/12/23 09:39:57;;;;;;;21.98;4.30;;;9.10;99.90;;;;;;4994793;28;20189;-46
2020/12/23 09:42:24;;;;;;;3.75;3.08;;;9.10;99.90;;;;;;4994573;28;20175;-48
2020/12/23 09:44:51;;;;;;;8.07;2.60;;;9.00;99.90;;;;;;4976842;28;20206;-46
2020/12/23 09:47:18;;;;;;;4.60;3.35;;;9.00;99.90;;;;;;4974866;28;20207;-47
2020/12/23 09:49:45;;;;;;;7.63;3.55;;;9.10;99.90;;;;;;4992395;28;20235;-42
2020/12/23 09:52:12;;;;;;;2.60;1.95;;;9.20;99.90;;;;;;4994184;28;20213;-46
2020/12/23 09:54:39;;;;;;;11.27;1.80;;;9.20;99.90;;;;;;4995085;28;20209;-44
2020/12/23 09:57:07;;;;;;;9.88;2.15;;;9.20;99.90;;;;;;4994466;28;20215;-50
2020/12/23 09:59:34;;;;;;;7.57;3.47;;;9.10;99.90;;;;;;4994059;28;20229;-45
2020/12/23 10:02:01;;;;;;;5.20;2.17;;;9.10;99.90;;;;;;4993235;28;20179;-45
2020/12/23 10:04:29;;;;;;;5.00;2.53;;;9.30;99.90;;;;;;4993707;28;20682;-52
2020/12/23 10:06:57;;;;;;;8.73;1.92;;;9.30;99.90;;;;;;4993604;28;20213;-44
2020/12/23 10:09:39;;;;;;;1.95;1.60;;;9.40;99.90;;;;;;4993340;28;20205;-46
2020/12/23 10:12:07;;;;;;;1.60;1.23;;;9.30;99.90;;;;;;4993269;28;20210;-49
2020/12/23 10:14:34;;;;;;;8.52;2.40;;;9.20;99.90;;;;;;4992750;28;20193;-46
2020/12/23 10:17:01;;;;;;;2.42;1.88;;;9.10;99.90;;;;;;4993781;28;20215;-46
2020/12/23 10:19:28;;;;;;;3.83;1.42;;;9.10;99.90;;;;;;4993744;28;20175;-51
2020/12/23 10:21:55;;;;;;;5.55;1.60;;;9.10;99.90;;;;;;4993917;28;20202;-45
2020/12/23 10:24:22;;;;;;;3.70;1.50;;;9.10;99.90;;;;;;4993741;28;20199;-54
2020/12/23 10:26:52;;;;;;;6.75;2.75;;;9.20;99.90;;;;;;4992942;28;20215;-45
2020/12/23 10:29:21;;;;;;;3.70;2.05;;;9.20;99.90;;;;;;4993787;28;20183;-46
2020/12/23 10:31:48;;;;;;;5.13;2.25;;;9.20;99.90;;;;;;4993440;28;20277;-43
2020/12/23 10:34:15;;;;;;;4.50;2.22;;;9.20;99.90;;;;;;4992996;28;20202;-47
2020/12/23 10:36:43;;;;;;;2.25;1.48;;;9.20;99.90;;;;;;4993729;28;20229;-51
2020/12/23 10:39:10;;;;;;;6.50;1.70;;;9.10;1.00;;;;;;4992920;28;20183;-47
2020/12/23 10:41:37;;;;;;;5.18;2.60;;;9.30;1.00;;;;;;4992881;28;20175;-50
2020/12/23 10:44:04;;;;;;;6.97;3.50;;;9.40;1.00;;;;;;4994072;28;20251;-45
2020/12/23 10:46:32;;;;;;;3.47;2.28;;;9.30;1.00;;;;;;4993151;28;20234;-47
2020/12/23 10:48:59;;;;;;;3.47;1.40;;;9.30;1.00;;;;;;4992539;28;20222;-50
2020/12/23 10:51:27;;;;;;;3.55;2.03;;;9.40;1.00;;;;;;4991800;28;20194;-45
2020/12/23 10:53:54;;;;;;;4.82;2.72;;;9.40;1.00;;;;;;4993428;28;20190;-43
2020/12/23 10:56:21;;;;;;;3.72;1.33;;;9.40;1.00;;;;;;4993085;28;20214;-47
2020/12/23 10:58:48;;;;;;;4.13;2.90;;;9.30;1.00;;;;;;4993392;28;20186;-47
2020/12/23 11:01:20;;;;;;;6.28;2.97;;;9.30;1.00;;;;;;4993203;28;20573;-54
2020/12/23 11:03:48;;;;;;;3.70;1.88;;;9.20;1.00;;;;;;4991517;28;20199;-43
2020/12/23 11:06:15;;;;;;;2.67;1.85;;;9.30;99.90;;;;;;4992960;28;20222;-48
2020/12/23 11:08:43;;;;;;;8.35;2.85;;;9.30;1.00;;;;;;4993239;28;20218;-49
2020/12/23 11:11:13;;;;;;;8.15;2.72;;;9.30;1.00;;;;;;4993172;28;20175;-46
2020/12/23 11:13:41;;;;;;;7.93;4.13;;;9.30;1.00;;;;;;4992696;28;20238;-46
2020/12/23 11:16:14;;;;;;;4.18;2.30;;;9.30;1.00;;;;;;4991930;28;20217;-47
2020/12/23 11:18:41;;;;;;;16.88;8.07;;;9.20;1.00;;;;;;4992656;28;20174;-48
2020/12/23 11:21:09;;;;;;;2.85;2.15;;;9.30;1.00;;;;;;4992312;28;20187;-49
2020/12/23 11:23:36;;;;;;;3.65;2.08;;;9.30;1.00;;;;;;4992317;28;20218;-49
2020/12/23 11:26:05;;;;;;;4.82;2.05;;;9.20;1.00;;;;;;4992409;28;20218;-52
2020/12/23 11:28:45;;;;;;;2.85;2.50;;;9.30;99.90;;;;;;4973088;28;20196;-52
2020/12/23 11:31:13;;;;;;;5.03;2.72;;;9.40;1.00;;;;;;4973363;28;20593;-44
2020/12/23 11:33:40;;;;;;;7.13;2.50;;;9.50;99.90;;;;;;4973092;28;20191;-47
2020/12/23 11:36:09;;;;;;;8.20;3.00;;;9.60;99.90;;;;;;4973071;28;20208;-47
2020/12/23 11:38:36;;;;;;;6.72;3.17;;;9.70;99.90;;;;;;4973397;28;20235;-50
2020/12/23 11:41:06;;;;;;;6.22;3.67;;;9.60;99.90;;;;;;4973389;28;20191;-48
2020/12/23 11:43:33;;;;;;;6.22;3.47;;;9.80;99.90;;;;;;4973427;28;20206;-43
2020/12/23 11:46:02;;;;;;;4.57;2.75;;;9.80;99.90;;;;;;4973725;28;20940;-43
2020/12/23 11:48:29;;;;;;;12.40;3.50;;;9.90;99.90;;;;;;4973314;28;20187;-47
2020/12/23 11:50:56;;;;;;;4.15;3.25;;;9.80;99.90;;;;;;4972864;28;20231;-43
2020/12/23 11:53:24;;;;;;;2.80;2.00;;;9.70;99.90;;;;;;4993537;28;20226;-48
2020/12/23 11:55:51;;;;;;;4.80;3.78;;;9.60;99.90;;;;;;4992937;28;20762;-49
2020/12/23 11:58:19;;;;;;;9.07;4.93;;;9.40;99.90;;;;;;4992409;28;20186;-44
2020/12/23 12:00:46;;;;;;;4.60;3.20;;;9.30;99.90;;;;;;4992083;28;20167;-46
2020/12/23 12:03:14;;;;;;;3.92;2.40;;;9.30;99.90;;;;;;4991743;28;20185;-54
2020/12/23 12:05:41;;;;;;;5.35;3.85;;;9.20;99.90;;;;;;4972834;28;20565;-47
2020/12/23 12:08:09;;;;;;;2.97;2.00;;;9.20;99.90;;;;;;4991659;28;20195;-45
2020/12/23 12:10:54;;;;;;;5.95;2.88;;;9.20;99.90;;;;;;4991712;28;20426;-44
2020/12/23 12:13:22;;;;;;;4.82;3.90;;;9.20;99.90;;;;;;4991417;28;20221;-51
2020/12/23 12:15:49;;;;;;;9.07;3.08;;;9.10;99.90;;;;;;4991229;28;20265;-44
2020/12/23 12:18:16;;;;;;;7.05;3.30;;;9.20;99.90;;;;;;4991832;28;20206;-49
2020/12/23 12:20:44;;;;;;;4.38;3.38;;;9.10;99.90;;;;;;5001481;28;20190;-47
2020/12/23 12:23:11;;;;;;;5.85;2.63;;;9.10;99.90;;;;;;5006719;28;20256;-53
2020/12/23 12:25:39;;;;;;;2.42;1.92;;;9.10;99.90;;;;;;5011285;28;20695;-44
2020/12/23 12:28:07;;;;;;;8.75;3.45;;;9.10;99.90;;;;;;5009117;28;20190;-50
2020/12/23 12:30:36;;;;;;;7.97;3.10;;;9.30;99.90;;;;;;4991515;28;20193;-47
2020/12/23 12:33:03;;;;;;;3.67;2.78;;;9.20;99.90;;;;;;4991601;28;20602;-45
2020/12/23 12:35:31;;;;;;;4.55;3.30;;;9.20;99.90;;;;;;4973911;28;20257;-45
2020/12/23 12:37:58;;;;;;;3.90;2.88;;;9.20;99.90;;;;;;4991741;28;20694;-46
2020/12/23 12:40:26;;;;;;;9.80;6.03;;;9.10;99.90;;;;;;4973257;28;20198;-50
2020/12/23 12:42:53;;;;;;;5.47;2.17;;;9.10;99.90;;;;;;4991439;28;20190;-47
2020/12/23 12:45:21;;;;;;;7.70;2.50;;;9.00;99.90;;;;;;4991551;28;20679;-44
2020/12/23 12:47:48;;;;;;;5.88;1.98;;;8.90;99.90;;;;;;4991505;28;20448;-48
2020/12/23 12:50:15;;;;;;;4.55;2.78;;;9.00;99.90;;;;;;4991952;28;20218;-46
2020/12/23 12:52:42;;;;;;;3.63;2.28;;;9.00;99.90;;;;;;4991049;28;20222;-47
2020/12/23 12:55:09;;;;;;;8.88;3.45;;;9.10;99.90;;;;;;4979877;28;20253;-45
2020/12/23 12:57:36;;;;;;;4.30;1.75;;;9.10;99.90;;;;;;4991262;28;20186;-50
2020/12/23 13:00:04;;;;;;;4.03;2.10;;;9.10;99.90;;;;;;4991189;28;20201;-45
2020/12/23 13:02:33;;;;;;;5.65;2.25;;;9.10;99.90;;;;;;4991425;28;20179;-44
2020/12/23 13:05:00;;;;;;;5.95;3.28;;;9.00;99.90;;;;;;4990150;28;20706;-43
2020/12/23 13:07:27;;;;;;;2.90;2.22;;;8.90;99.90;;;;;;4991121;28;20586;-47